Time;durP1;ratioP1;P1;durP2;ratioP2;P2;SDS_P1;SDS_P2;PMS_P1;PMS_P2;Temp;Humidity;BMP_temperature;BMP_pressure;BME280_temperature;BME280_humidity;BME280_pressure;Samples;Min_cycle;Max_cycle;Signal;HPM_P1;HPM_P2
2023/01/29 00:02:32;;;;;;;;;;;20.10;43.50;;;;;;6105318;29;19935;-50
2023/01/29 00:05:34;;;;;;;;;;;21.20;43.50;;;;;;6105703;29;20407;-49
2023/01/29 00:08:35;;;;;;;;;;;20.40;42.90;;;;;;6105347;29;19971;-48
2023/01/29 00:11:36;;;;;;;;;;;20.40;42.40;;;;;;6104203;29;19927;-48
2023/01/29 00:14:38;;;;;;;;;;;20.30;43.10;;;;;;6105508;29;19938;-47
2023/01/29 00:17:39;;;;;;;;;;;20.10;42.90;;;;;;6105486;29;19978;-48
2023/01/29 00:20:42;;;;;;;;;;;20.60;43.20;;;;;;6105011;29;19931;-46
2023/01/29 00:23:43;;;;;;;;;;;20.10;42.80;;;;;;6105134;29;19927;-50
2023/01/29 00:26:45;;;;;;;;;;;20.40;42.90;;;;;;6105166;29;19931;-50
2023/01/29 00:30:08;;;;;;;;;;;20.10;43.00;;;;;;6105014;29;19934;-49
2023/01/29 00:33:08;;;;;;;;;;;20.30;43.20;;;;;;6104579;29;19927;-50
2023/01/29 00:36:10;;;;;;;;;;;21.00;43.50;;;;;;6105044;29;19934;-51
2023/01/29 00:39:12;;;;;;;;;;;20.40;43.00;;;;;;6104843;29;19927;-49
2023/01/29 00:45:29;;;;;;;;;;;20.10;42.80;;;;;;6105057;29;20023;-49
2023/01/29 00:48:31;;;;;;;;;;;20.10;43.00;;;;;;6104508;29;20034;-49
2023/01/29 00:51:33;;;;;;;;;;;20.00;43.00;;;;;;6105580;29;20421;-46
2023/01/29 00:54:34;;;;;;;;;;;20.10;42.80;;;;;;6103350;29;19931;-48
2023/01/29 00:57:36;;;;;;;;;;;20.10;43.10;;;;;;6104826;29;19927;-48
2023/01/29 01:00:37;;;;;;;;;;;20.90;43.40;;;;;;6104556;29;19974;-48
2023/01/29 01:03:41;;;;;;;;;;;20.60;43.40;;;;;;6104891;29;20279;-50
2023/01/29 01:06:42;;;;;;;;;;;20.00;43.00;;;;;;6104362;29;19934;-46
2023/01/29 01:13:00;;;;;;;;;;;19.90;42.80;;;;;;6104451;29;19935;-49
2023/01/29 01:16:07;;;;;;;;;;;20.00;42.80;;;;;;6104388;29;19927;-46
2023/01/29 01:19:09;;;;;;;;;;;20.00;43.00;;;;;;6103957;29;19927;-47
2023/01/29 01:22:11;;;;;;;;;;;20.30;43.10;;;;;;6104713;29;19931;-50
2023/01/29 01:25:12;;;;;;;;;;;20.00;43.10;;;;;;6104655;29;19927;-47
2023/01/29 01:28:14;;;;;;;;;;;20.20;43.10;;;;;;6103849;29;19958;-50
2023/01/29 01:31:15;;;;;;;;;;;20.40;43.00;;;;;;6104135;29;20305;-49
2023/01/29 01:34:17;;;;;;;;;;;20.00;43.10;;;;;;6103266;29;19978;-46
2023/01/29 01:37:19;;;;;;;;;;;20.20;43.20;;;;;;6103763;29;19934;-50
2023/01/29 01:40:22;;;;;;;;;;;20.00;43.00;;;;;;6102460;29;19934;-48
2023/01/29 01:43:24;;;;;;;;;;;20.00;43.00;;;;;;6103819;29;19935;-49
2023/01/29 01:46:27;;;;;;;;;;;20.00;43.70;;;;;;6103768;29;19950;-48
2023/01/29 01:49:29;;;;;;;;;;;19.90;42.90;;;;;;6103712;29;19934;-51
2023/01/29 01:52:31;;;;;;;;;;;20.30;43.30;;;;;;6103630;29;19934;-51
2023/01/29 01:55:33;;;;;;;;;;;19.90;43.00;;;;;;6103575;29;19927;-50
2023/01/29 01:58:37;;;;;;;;;;;20.20;43.20;;;;;;6103426;29;20021;-51
2023/01/29 02:01:41;;;;;;;;;;;20.40;43.10;;;;;;6103859;29;19931;-49
2023/01/29 02:11:13;;;;;;;;;;;20.20;42.60;;;;;;6103324;29;20419;-49
2023/01/29 02:14:14;;;;;;;;;;;20.20;43.40;;;;;;6103175;29;20244;-47
2023/01/29 02:17:17;;;;;;;;;;;20.10;43.00;;;;;;6117688;29;19927;-49
2023/01/29 02:20:23;;;;;;;;;;;19.90;43.00;;;;;;6103359;29;19933;-46
2023/01/29 02:23:36;;;;;;;;;;;19.90;43.00;;;;;;6103026;29;19950;-47
2023/01/29 02:26:49;;;;;;;;;;;19.90;42.90;;;;;;6102908;29;19927;-49
2023/01/29 02:30:00;;;;;;;;;;;19.90;42.90;;;;;;6101980;29;19927;-48
2023/01/29 02:33:06;;;;;;;;;;;20.60;43.40;;;;;;6103132;29;20427;-50
2023/01/29 02:36:12;;;;;;;;;;;19.90;43.00;;;;;;6102976;29;19927;-47
2023/01/29 02:39:16;;;;;;;;;;;19.90;43.00;;;;;;6101787;29;20037;-49
2023/01/29 02:42:24;;;;;;;;;;;19.80;43.00;;;;;;6103063;29;19931;-48
2023/01/29 02:45:31;;;;;;;;;;;19.80;43.00;;;;;;6102749;29;19927;-48
2023/01/29 02:48:37;;;;;;;;;;;19.80;42.90;;;;;;6105504;29;20386;-48
2023/01/29 02:51:42;;;;;;;;;;;19.90;43.10;;;;;;6105617;29;19927;-48
2023/01/29 02:54:45;;;;;;;;;;;19.90;43.00;;;;;;6105308;29;19927;-49
2023/01/29 02:57:48;;;;;;;;;;;19.90;43.10;;;;;;6107123;29;19998;-51
2023/01/29 03:00:51;;;;;;;;;;;20.20;43.10;;;;;;6107084;29;19935;-52
2023/01/29 03:03:54;;;;;;;;;;;20.20;43.30;;;;;;6107036;29;19957;-49
2023/01/29 03:06:57;;;;;;;;;;;20.20;43.30;;;;;;6107458;29;19931;-49
2023/01/29 03:09:59;;;;;;;;;;;20.00;42.50;;;;;;6106918;29;19935;-48
2023/01/29 03:13:02;;;;;;;;;;;20.00;43.10;;;;;;6106452;29;19934;-49
2023/01/29 03:16:06;;;;;;;;;;;19.80;42.90;;;;;;6106944;29;19927;-50
2023/01/29 03:19:17;;;;;;;;;;;19.80;43.20;;;;;;6106643;29;19958;-47
2023/01/29 03:22:20;;;;;;;;;;;20.00;43.10;;;;;;6106377;29;20390;-46
2023/01/29 03:35:13;;;;;;;;;;;20.20;43.40;;;;;;6105547;29;19934;-50
2023/01/29 03:38:14;;;;;;;;;;;19.80;43.10;;;;;;6105921;29;19927;-48
2023/01/29 03:41:21;;;;;;;;;;;20.30;43.50;;;;;;6106181;29;19938;-46
2023/01/29 03:44:29;;;;;;;;;;;20.20;43.20;;;;;;6105923;29;19927;-48
2023/01/29 03:47:35;;;;;;;;;;;19.70;42.90;;;;;;6105647;29;19934;-49
2023/01/29 03:50:40;;;;;;;;;;;19.90;43.10;;;;;;6105979;29;19933;-49
2023/01/29 03:53:43;;;;;;;;;;;19.70;43.10;;;;;;6104567;29;19927;-51
2023/01/29 03:56:51;;;;;;;;;;;19.90;43.00;;;;;;6105492;29;19938;-51
2023/01/29 03:59:56;;;;;;;;;;;19.80;43.10;;;;;;6105546;29;19981;-47
2023/01/29 04:03:19;;;;;;;;;;;19.80;43.10;;;;;;6105877;29;19927;-47
2023/01/29 04:06:23;;;;;;;;;;;20.70;43.50;;;;;;6104258;29;19927;-48
2023/01/29 04:09:44;;;;;;;;;;;20.10;42.80;;;;;;6105193;29;19927;-46
2023/01/29 04:12:48;;;;;;;;;;;19.70;43.00;;;;;;6105676;29;19931;-49
2023/01/29 04:15:53;;;;;;;;;;;19.70;42.90;;;;;;6105035;29;19927;-47
2023/01/29 04:19:05;;;;;;;;;;;19.80;43.00;;;;;;6103922;29;20010;-49
2023/01/29 04:22:14;;;;;;;;;;;19.80;43.30;;;;;;6105557;29;19927;-50
2023/01/29 04:25:17;;;;;;;;;;;19.70;42.90;;;;;;6104872;29;19931;-49
2023/01/29 04:28:22;;;;;;;;;;;19.90;43.10;;;;;;6105129;29;19934;-51
2023/01/29 04:31:25;;;;;;;;;;;19.70;42.90;;;;;;6105326;29;19927;-48
2023/01/29 04:34:32;;;;;;;;;;;19.80;43.00;;;;;;6104965;29;20462;-48
2023/01/29 04:37:36;;;;;;;;;;;20.60;43.60;;;;;;6105075;29;19935;-49
2023/01/29 04:40:46;;;;;;;;;;;20.10;43.10;;;;;;6104678;29;19943;-48
2023/01/29 04:43:55;;;;;;;;;;;19.70;42.90;;;;;;6104917;29;19931;-48
2023/01/29 04:47:00;;;;;;;;;;;19.80;42.90;;;;;;6104749;29;19931;-48
2023/01/29 04:50:08;;;;;;;;;;;19.70;42.90;;;;;;6104236;29;19927;-48
2023/01/29 04:53:13;;;;;;;;;;;19.80;43.10;;;;;;6104840;29;19934;-50
2023/01/29 04:56:18;;;;;;;;;;;19.70;43.00;;;;;;6104464;29;19959;-47
2023/01/29 04:59:23;;;;;;;;;;;19.90;43.10;;;;;;6104403;29;20062;-48
2023/01/29 05:02:25;;;;;;;;;;;20.00;43.00;;;;;;6104588;29;19990;-47
2023/01/29 05:05:28;;;;;;;;;;;19.70;43.00;;;;;;6103177;29;20306;-47
2023/01/29 05:08:30;;;;;;;;;;;20.30;43.30;;;;;;6104389;29;19927;-47
2023/01/29 05:11:32;;;;;;;;;;;19.90;42.60;;;;;;6103710;29;19979;-51
2023/01/29 05:14:34;;;;;;;;;;;19.90;43.00;;;;;;6104171;29;19931;-50
2023/01/29 05:17:35;;;;;;;;;;;19.80;43.00;;;;;;6104130;29;19978;-48
2023/01/29 05:20:38;;;;;;;;;;;20.10;43.30;;;;;;6104374;29;19934;-48
2023/01/29 05:23:58;;;;;;;;;;;19.60;43.00;;;;;;6104187;29;19935;-47
2023/01/29 05:30:13;;;;;;;;;;;19.80;43.00;;;;;;6103856;29;20456;-47
2023/01/29 05:33:15;;;;;;;;;;;20.50;43.50;;;;;;6104279;29;19934;-46
2023/01/29 05:36:17;;;;;;;;;;;20.10;43.20;;;;;;6103852;29;20018;-50
2023/01/29 05:39:19;;;;;;;;;;;19.80;43.00;;;;;;6103677;29;20292;-46
2023/01/29 05:42:20;;;;;;;;;;;19.90;43.30;;;;;;6103836;29;19927;-50
2023/01/29 05:45:21;;;;;;;;;;;20.00;43.10;;;;;;6103696;29;19934;-48
2023/01/29 05:48:23;;;;;;;;;;;19.70;42.90;;;;;;6103664;29;20295;-51
2023/01/29 05:51:25;;;;;;;;;;;19.60;42.90;;;;;;6102348;29;19927;-48
2023/01/29 05:54:26;;;;;;;;;;;19.70;43.10;;;;;;6103521;29;19935;-48
2023/01/29 05:57:28;;;;;;;;;;;19.80;43.10;;;;;;6103597;29;19931;-49
2023/01/29 06:00:29;;;;;;;;;;;19.80;43.10;;;;;;6104341;29;19927;-49
2023/01/29 06:03:30;;;;;;;;;;;20.50;43.40;;;;;;6103481;29;19927;-52
2023/01/29 06:06:32;;;;;;;;;;;20.20;43.30;;;;;;6103327;29;20407;-49
2023/01/29 06:09:33;;;;;;;;;;;19.80;43.10;;;;;;6103617;29;20014;-49
2023/01/29 06:12:35;;;;;;;;;;;19.80;42.30;;;;;;6103963;29;19943;-48
2023/01/29 06:15:38;;;;;;;;;;;19.80;43.20;;;;;;6102964;29;19938;-51
2023/01/29 06:18:40;;;;;;;;;;;19.90;43.00;;;;;;6103692;29;20264;-50
2023/01/29 06:21:41;;;;;;;;;;;19.70;43.00;;;;;;6104197;29;20414;-51
2023/01/29 06:24:43;;;;;;;;;;;19.60;43.10;;;;;;6107225;29;19958;-50
2023/01/29 06:27:44;;;;;;;;;;;19.60;43.10;;;;;;6107526;29;19927;-49
2023/01/29 06:30:46;;;;;;;;;;;19.70;43.00;;;;;;6107113;29;20025;-49
2023/01/29 06:33:47;;;;;;;;;;;20.40;43.40;;;;;;6106927;29;19927;-49
2023/01/29 06:36:49;;;;;;;;;;;20.00;43.20;;;;;;6107149;29;19982;-51
2023/01/29 06:39:50;;;;;;;;;;;19.60;43.00;;;;;;6106965;29;19978;-49
2023/01/29 06:42:51;;;;;;;;;;;19.90;43.20;;;;;;6106903;29;19966;-50
2023/01/29 06:45:54;;;;;;;;;;;20.30;43.40;;;;;;6107146;29;20398;-49
2023/01/29 06:48:56;;;;;;;;;;;19.70;43.00;;;;;;6105666;29;20014;-47
2023/01/29 06:51:58;;;;;;;;;;;19.70;43.00;;;;;;6106661;29;19927;-50
2023/01/29 06:54:59;;;;;;;;;;;20.20;43.30;;;;;;6106995;29;19983;-49
2023/01/29 06:58:04;;;;;;;;;;;19.60;43.00;;;;;;6106710;29;19934;-47
2023/01/29 07:01:06;;;;;;;;;;;19.60;43.00;;;;;;6106698;29;19931;-50
2023/01/29 07:04:07;;;;;;;;;;;20.30;43.90;;;;;;6105513;29;19927;-47
2023/01/29 07:07:12;;;;;;;;;;;19.70;43.00;;;;;;6106689;29;19935;-47
2023/01/29 07:10:13;;;;;;;;;;;19.80;42.40;;;;;;6106531;29;20407;-47
2023/01/29 07:13:14;;;;;;;;;;;19.80;42.50;;;;;;6106752;29;19927;-48
2023/01/29 07:16:16;;;;;;;;;;;20.50;43.50;;;;;;6106288;29;20392;-49
2023/01/29 07:19:17;;;;;;;;;;;20.20;43.10;;;;;;6106118;29;19966;-50
2023/01/29 07:22:19;;;;;;;;;;;19.70;42.90;;;;;;6106485;29;19931;-50
2023/01/29 07:25:21;;;;;;;;;;;20.00;43.00;;;;;;6106297;29;19934;-48
2023/01/29 07:28:22;;;;;;;;;;;19.80;42.80;;;;;;6106160;29;19927;-50
2023/01/29 07:31:24;;;;;;;;;;;20.20;43.00;;;;;;6106481;29;19941;-51
2023/01/29 07:34:25;;;;;;;;;;;20.10;42.90;;;;;;6105158;29;19927;-50
2023/01/29 07:37:27;;;;;;;;;;;20.10;42.90;;;;;;6105893;29;19931;-50
2023/01/29 07:40:28;;;;;;;;;;;19.80;42.70;;;;;;6106326;29;19931;-47
2023/01/29 07:43:30;;;;;;;;;;;19.90;42.50;;;;;;6106019;29;20000;-48
2023/01/29 07:46:31;;;;;;;;;;;20.80;43.10;;;;;;6106480;29;19927;-48
2023/01/29 07:49:32;;;;;;;;;;;19.80;42.50;;;;;;6106345;29;19997;-46
2023/01/29 07:52:34;;;;;;;;;;;19.80;42.50;;;;;;6106362;29;19931;-49
2023/01/29 07:55:35;;;;;;;;;;;20.00;42.50;;;;;;6105669;29;19954;-50
2023/01/29 07:58:37;;;;;;;;;;;20.30;42.50;;;;;;6105420;29;19927;-50
2023/01/29 08:01:38;;;;;;;;;;;19.90;42.50;;;;;;6105880;29;19970;-48
2023/01/29 08:04:39;;;;;;;;;;;19.80;42.30;;;;;;6105515;29;19927;-47
2023/01/29 08:07:41;;;;;;;;;;;20.00;42.20;;;;;;6106216;29;19927;-47
2023/01/29 08:10:42;;;;;;;;;;;20.10;41.80;;;;;;6105461;29;20336;-48
2023/01/29 08:13:45;;;;;;;;;;;20.10;42.50;;;;;;6105287;29;19950;-47
2023/01/29 08:16:46;;;;;;;;;;;20.00;42.50;;;;;;6104993;29;19953;-47
2023/01/29 08:19:48;;;;;;;;;;;20.10;42.30;;;;;;6105355;29;19927;-48
2023/01/29 08:22:57;;;;;;;;;;;20.80;42.70;;;;;;6105156;29;19955;-47
2023/01/29 08:25:58;;;;;;;;;;;20.00;42.30;;;;;;6104988;29;20388;-48
2023/01/29 08:28:59;;;;;;;;;;;20.00;42.40;;;;;;6105252;29;20371;-49
2023/01/29 08:32:01;;;;;;;;;;;20.00;42.20;;;;;;6105058;29;19974;-48
2023/01/29 08:35:02;;;;;;;;;;;21.00;42.80;;;;;;6105915;29;19927;-49
2023/01/29 08:38:04;;;;;;;;;;;20.20;42.20;;;;;;6105259;29;19962;-50
2023/01/29 08:41:06;;;;;;;;;;;20.40;42.30;;;;;;6104906;29;19931;-49
2023/01/29 08:44:07;;;;;;;;;;;20.30;42.40;;;;;;6104452;29;19927;-52
2023/01/29 08:47:08;;;;;;;;;;;20.60;42.30;;;;;;6104970;29;19962;-49
2023/01/29 08:50:10;;;;;;;;;;;20.10;42.30;;;;;;6104759;29;19962;-47
2023/01/29 08:53:12;;;;;;;;;;;20.10;42.00;;;;;;6104574;29;20010;-50
2023/01/29 08:56:15;;;;;;;;;;;20.20;42.20;;;;;;6104969;29;19966;-51
2023/01/29 08:59:16;;;;;;;;;;;21.00;42.60;;;;;;6104643;29;19931;-48
2023/01/29 09:02:18;;;;;;;;;;;20.30;42.10;;;;;;6104293;29;19927;-48
2023/01/29 09:05:19;;;;;;;;;;;20.60;42.20;;;;;;6104773;29;20291;-46
2023/01/29 09:08:22;;;;;;;;;;;20.20;42.10;;;;;;6104347;29;19934;-50
2023/01/29 09:11:23;;;;;;;;;;;20.30;41.50;;;;;;6104090;29;19927;-50
2023/01/29 09:14:27;;;;;;;;;;;20.40;41.90;;;;;;6102500;29;22439;-50
2023/01/29 09:17:28;;;;;;;;;;;20.40;42.00;;;;;;6104197;29;20386;-50
2023/01/29 09:20:29;;;;;;;;;;;21.10;42.60;;;;;;6104136;29;19982;-48
2023/01/29 09:23:32;;;;;;;;;;;20.40;42.00;;;;;;6104542;29;20375;-49
2023/01/29 09:26:33;;;;;;;;;;;21.60;42.80;;;;;;6104044;29;20022;-50
2023/01/29 09:29:34;;;;;;;;;;;20.50;42.20;;;;;;6104278;29;19927;-47
2023/01/29 09:32:36;;;;;;;;;;;20.60;42.00;;;;;;6104406;29;19981;-51
2023/01/29 09:35:54;;;;;;;;;;;20.30;42.10;;;;;;6103943;29;19927;-48
2023/01/29 09:38:56;;;;;;;;;;;21.10;42.50;;;;;;6103953;29;20022;-50
2023/01/29 09:42:02;;;;;;;;;;;20.60;42.20;;;;;;6104353;29;20299;-52
2023/01/29 09:45:05;;;;;;;;;;;20.80;41.50;;;;;;6102734;29;19927;-49
2023/01/29 09:48:09;;;;;;;;;;;20.40;41.90;;;;;;6103840;29;19931;-48
2023/01/29 09:51:13;;;;;;;;;;;20.80;42.20;;;;;;6103614;29;19934;-47
2023/01/29 09:54:18;;;;;;;;;;;20.30;41.80;;;;;;6104166;29;19931;-46
2023/01/29 09:57:23;;;;;;;;;;;21.20;42.20;;;;;;6106604;29;19978;-45
2023/01/29 10:00:28;;;;;;;;;;;20.30;41.80;;;;;;6107795;29;19927;-51
2023/01/29 10:03:40;;;;;;;;;;;20.90;42.10;;;;;;6108060;29;20383;-47
2023/01/29 10:06:48;;;;;;;;;;;20.40;41.80;;;;;;6107856;29;19927;-50
2023/01/29 10:10:00;;;;;;;;;;;20.90;42.10;;;;;;6107625;29;20303;-50
2023/01/29 10:13:05;;;;;;;;;;;20.40;41.80;;;;;;6107712;29;19970;-50
2023/01/29 10:16:17;;;;;;;;;;;21.20;42.10;;;;;;6106920;29;19927;-48
2023/01/29 10:19:32;;;;;;;;;;;20.70;41.80;;;;;;6107312;29;19970;-49
2023/01/29 10:22:42;;;;;;;;;;;21.30;42.20;;;;;;6107784;29;19931;-49
2023/01/29 10:25:44;;;;;;;;;;;20.30;41.80;;;;;;6107362;29;19927;-49
2023/01/29 10:28:48;;;;;;;;;;;21.30;42.30;;;;;;6107352;29;19934;-50
2023/01/29 10:31:52;;;;;;;;;;;20.70;41.80;;;;;;6107088;29;19934;-49
2023/01/29 10:34:55;;;;;;;;;;;20.90;41.90;;;;;;6107344;29;19975;-46
2023/01/29 10:37:58;;;;;;;;;;;20.50;41.70;;;;;;6107082;29;20021;-47
2023/01/29 10:41:06;;;;;;;;;;;21.40;42.20;;;;;;6105979;29;20383;-48
2023/01/29 10:44:17;;;;;;;;;;;20.40;41.50;;;;;;6107373;29;20455;-49
2023/01/29 10:47:25;;;;;;;;;;;21.10;41.90;;;;;;6106992;29;20273;-51
2023/01/29 10:50:38;;;;;;;;;;;20.70;41.70;;;;;;6106992;29;19965;-48
2023/01/29 10:53:52;;;;;;;;;;;21.10;42.00;;;;;;6106830;29;19982;-49
2023/01/29 10:57:01;;;;;;;;;;;20.50;41.60;;;;;;6106867;29;19927;-47
2023/01/29 11:00:11;;;;;;;;;;;20.30;41.50;;;;;;6106791;29;19959;-47
2023/01/29 11:03:15;;;;;;;;;;;20.50;41.60;;;;;;6106530;29;20364;-48
2023/01/29 11:06:30;;;;;;;;;;;20.90;41.80;;;;;;6106804;29;19927;-50
2023/01/29 11:09:33;;;;;;;;;;;20.50;41.60;;;;;;6105585;29;19951;-50
2023/01/29 11:12:37;;;;;;;;;;;20.50;41.50;;;;;;6106403;29;19975;-46
2023/01/29 11:15:38;;;;;;;;;;;20.50;41.80;;;;;;6106663;29;19954;-52
2023/01/29 11:18:52;;;;;;;;;;;21.30;42.20;;;;;;6106454;29;19979;-47
2023/01/29 11:21:56;;;;;;;;;;;20.40;41.50;;;;;;6106412;29;19950;-48
2023/01/29 11:25:12;;;;;;;;;;;20.50;41.50;;;;;;6106271;29;19927;-51
2023/01/29 11:28:33;;;;;;;;;;;20.30;41.50;;;;;;6105681;29;20380;-50
2023/01/29 11:31:35;;;;;;;;;;;21.50;42.20;;;;;;6106496;29;20018;-50
2023/01/29 11:34:52;;;;;;;;;;;20.50;41.50;;;;;;6105514;29;19931;-50
2023/01/29 11:38:04;;;;;;;;;;;20.80;41.60;;;;;;6104886;29;19951;-47
2023/01/29 11:41:07;;;;;;;;;;;20.50;41.50;;;;;;6106175;29;19928;-47
2023/01/29 11:44:17;;;;;;;;;;;21.30;41.90;;;;;;6105868;29;19962;-49
2023/01/29 11:47:19;;;;;;;;;;;20.90;41.60;;;;;;6104679;29;19994;-49
2023/01/29 11:50:23;;;;;;;;;;;21.20;41.80;;;;;;6104903;29;19934;-51
2023/01/29 11:53:30;;;;;;;;;;;20.70;41.50;;;;;;6106378;29;19934;-50
2023/01/29 11:56:34;;;;;;;;;;;21.30;41.90;;;;;;6105739;29;19959;-50
2023/01/29 11:59:39;;;;;;;;;;;20.60;41.60;;;;;;6105907;29;19934;-50
2023/01/29 12:02:42;;;;;;;;;;;20.90;41.50;;;;;;6105517;29;19998;-48
2023/01/29 12:05:53;;;;;;;;;;;20.60;41.40;;;;;;6105744;29;19934;-47
2023/01/29 12:08:55;;;;;;;;;;;21.40;41.90;;;;;;6105252;29;19934;-50
2023/01/29 12:12:15;;;;;;;;;;;20.90;41.60;;;;;;6104096;29;19978;-47
2023/01/29 12:15:20;;;;;;;;;;;20.40;41.20;;;;;;6105961;29;19931;-50
2023/01/29 12:18:25;;;;;;;;;;;20.60;41.30;;;;;;6105261;29;19927;-50
2023/01/29 12:21:32;;;;;;;;;;;20.60;41.30;;;;;;6105235;29;20008;-50
2023/01/29 12:24:36;;;;;;;;;;;20.80;41.50;;;;;;6103833;29;20414;-48
2023/01/29 12:27:41;;;;;;;;;;;20.60;41.50;;;;;;6105192;29;20363;-49
2023/01/29 12:30:47;;;;;;;;;;;20.80;41.40;;;;;;6105018;29;19934;-47
2023/01/29 12:33:51;;;;;;;;;;;21.20;41.10;;;;;;6104824;29;20018;-49
2023/01/29 12:36:55;;;;;;;;;;;20.60;41.30;;;;;;6104907;29;19983;-49
2023/01/29 12:39:56;;;;;;;;;;;20.60;41.50;;;;;;6104760;29;20013;-49
2023/01/29 12:43:01;;;;;;;;;;;20.60;41.60;;;;;;6104696;29;20371;-52
2023/01/29 12:46:05;;;;;;;;;;;21.70;42.00;;;;;;6105012;29;19931;-50
2023/01/29 12:49:11;;;;;;;;;;;20.80;41.60;;;;;;6103476;29;19946;-50
2023/01/29 12:52:14;;;;;;;;;;;21.10;41.50;;;;;;6104582;29;20017;-50
2023/01/29 12:55:17;;;;;;;;;;;21.10;41.70;;;;;;6104854;29;19927;-46
2023/01/29 12:58:21;;;;;;;;;;;21.50;41.90;;;;;;6103256;29;19935;-48
2023/01/29 13:01:26;;;;;;;;;;;20.60;41.40;;;;;;6104358;29;19927;-50
2023/01/29 13:04:31;;;;;;;;;;;21.30;41.90;;;;;;6104695;29;19927;-49
2023/01/29 13:07:36;;;;;;;;;;;21.00;41.60;;;;;;6104401;29;19965;-50
2023/01/29 13:10:41;;;;;;;;;;;21.40;41.70;;;;;;6104107;29;19927;-48
2023/01/29 13:13:51;;;;;;;;;;;21.10;41.50;;;;;;6104055;29;19927;-49
2023/01/29 13:17:00;;;;;;;;;;;21.00;41.50;;;;;;6104273;29;19934;-49
2023/01/29 13:20:04;;;;;;;;;;;20.60;41.60;;;;;;6104188;29;20300;-50
2023/01/29 13:23:14;;;;;;;;;;;21.20;41.50;;;;;;6104050;29;20359;-46
2023/01/29 13:26:16;;;;;;;;;;;20.70;41.50;;;;;;6104292;29;20380;-49
2023/01/29 13:29:21;;;;;;;;;;;21.50;41.70;;;;;;6104014;29;19961;-47
2023/01/29 13:32:24;;;;;;;;;;;20.80;41.40;;;;;;6103137;29;20376;-51
2023/01/29 13:35:26;;;;;;;;;;;21.60;42.00;;;;;;6104023;29;20040;-46
2023/01/29 13:38:28;;;;;;;;;;;20.70;41.60;;;;;;6103688;29;19931;-51
2023/01/29 13:41:31;;;;;;;;;;;21.30;41.60;;;;;;6102469;29;19934;-51
2023/01/29 13:44:34;;;;;;;;;;;20.60;41.30;;;;;;6104023;29;20014;-49
2023/01/29 13:47:37;;;;;;;;;;;21.30;41.80;;;;;;6103967;29;19927;-47
2023/01/29 13:50:40;;;;;;;;;;;20.80;42.30;;;;;;6102381;29;20419;-50
2023/01/29 13:53:42;;;;;;;;;;;21.60;41.80;;;;;;6103868;29;20303;-47
2023/01/29 13:56:47;;;;;;;;;;;21.00;41.50;;;;;;6102268;29;19966;-49
2023/01/29 13:59:52;;;;;;;;;;;21.60;41.80;;;;;;6102444;29;20395;-50
2023/01/29 14:03:10;;;;;;;;;;;20.80;41.50;;;;;;6102296;29;19928;-50
2023/01/29 14:06:32;;;;;;;;;;;21.20;41.50;;;;;;6102392;29;20031;-48
2023/01/29 14:09:48;;;;;;;;;;;21.00;41.80;;;;;;6102236;29;19927;-47
2023/01/29 14:12:51;;;;;;;;;;;21.20;41.70;;;;;;6102399;29;19928;-47
2023/01/29 14:16:08;;;;;;;;;;;20.70;41.50;;;;;;6103197;29;20113;-51
2023/01/29 14:19:16;;;;;;;;;;;20.90;41.40;;;;;;6102178;29;20375;-50
2023/01/29 14:22:20;;;;;;;;;;;21.20;41.70;;;;;;6103289;29;19927;-48
2023/01/29 14:25:23;;;;;;;;;;;21.00;41.40;;;;;;6103226;29;19928;-47
2023/01/29 14:28:28;;;;;;;;;;;20.60;41.50;;;;;;6103111;29;19933;-49
2023/01/29 14:31:31;;;;;;;;;;;21.40;41.90;;;;;;6103371;29;20036;-48
2023/01/29 14:34:34;;;;;;;;;;;20.80;41.50;;;;;;6103173;29;19934;-46
2023/01/29 14:37:38;;;;;;;;;;;21.50;41.80;;;;;;6101674;29;19954;-47
2023/01/29 14:40:40;;;;;;;;;;;20.80;41.50;;;;;;6103420;29;19927;-47
2023/01/29 14:43:42;;;;;;;;;;;21.60;42.00;;;;;;6106159;29;20303;-49
2023/01/29 14:46:44;;;;;;;;;;;20.80;41.60;;;;;;6106892;29;19955;-47
2023/01/29 14:49:49;;;;;;;;;;;21.70;42.00;;;;;;6107198;29;19928;-49
2023/01/29 14:52:52;;;;;;;;;;;20.90;41.50;;;;;;6106943;29;19927;-48
2023/01/29 14:55:56;;;;;;;;;;;21.40;41.70;;;;;;6106668;29;20467;-49
2023/01/29 14:59:03;;;;;;;;;;;21.00;41.50;;;;;;6107030;29;19950;-51
2023/01/29 15:02:13;;;;;;;;;;;21.30;41.70;;;;;;6106617;29;20025;-49
2023/01/29 15:05:17;;;;;;;;;;;20.70;41.40;;;;;;6106596;29;20030;-48
2023/01/29 15:08:22;;;;;;;;;;;21.60;41.90;;;;;;6106818;29;20050;-47
2023/01/29 15:11:36;;;;;;;;;;;20.90;40.90;;;;;;6106564;29;20364;-48
2023/01/29 15:14:42;;;;;;;;;;;21.60;41.90;;;;;;6106575;29;19931;-47
2023/01/29 15:17:48;;;;;;;;;;;20.90;41.70;;;;;;6106008;29;19990;-49
2023/01/29 15:21:00;;;;;;;;;;;21.40;41.70;;;;;;6105373;29;20021;-48
2023/01/29 15:24:03;;;;;;;;;;;20.70;41.50;;;;;;6106764;29;19927;-48
2023/01/29 15:27:06;;;;;;;;;;;21.50;42.00;;;;;;6106132;29;19927;-48
2023/01/29 15:30:13;;;;;;;;;;;20.70;41.40;;;;;;6105013;29;20007;-47
2023/01/29 15:33:15;;;;;;;;;;;21.20;41.60;;;;;;6106027;29;20022;-49
2023/01/29 15:36:17;;;;;;;;;;;21.50;41.70;;;;;;6105712;29;19934;-50
2023/01/29 15:39:21;;;;;;;;;;;21.60;42.10;;;;;;6106542;29;19936;-46
2023/01/29 15:42:24;;;;;;;;;;;20.70;41.40;;;;;;6105836;29;19978;-49
2023/01/29 15:45:28;;;;;;;;;;;21.60;42.10;;;;;;6105905;29;19935;-49
2023/01/29 15:48:31;;;;;;;;;;;20.90;41.60;;;;;;6106113;29;20371;-48
2023/01/29 15:51:34;;;;;;;;;;;21.20;41.70;;;;;;6106064;29;19927;-46
2023/01/29 15:54:35;;;;;;;;;;;21.00;41.60;;;;;;6104974;29;19927;-48
2023/01/29 15:57:39;;;;;;;;;;;21.40;42.10;;;;;;6105773;29;20380;-47
2023/01/29 16:00:47;;;;;;;;;;;20.80;41.60;;;;;;6105775;29;19927;-45
2023/01/29 16:03:49;;;;;;;;;;;21.40;42.00;;;;;;6105469;29;19927;-46
2023/01/29 16:06:52;;;;;;;;;;;21.10;41.70;;;;;;6105867;29;20018;-48
2023/01/29 16:09:54;;;;;;;;;;;20.80;41.10;;;;;;6105438;29;19978;-49
2023/01/29 16:12:56;;;;;;;;;;;20.80;41.70;;;;;;6105454;29;20299;-47
2023/01/29 16:15:59;;;;;;;;;;;21.00;41.60;;;;;;6105006;29;19934;-48
2023/01/29 16:19:00;;;;;;;;;;;20.60;41.60;;;;;;6104221;29;19927;-47
2023/01/29 16:22:04;;;;;;;;;;;21.50;42.20;;;;;;6105350;29;19927;-48
2023/01/29 16:25:06;;;;;;;;;;;20.90;41.60;;;;;;6105074;29;20387;-46
2023/01/29 16:28:09;;;;;;;;;;;21.20;41.80;;;;;;6105118;29;19927;-49
2023/01/29 16:31:19;;;;;;;;;;;20.70;41.50;;;;;;6105026;29;19975;-50
2023/01/29 16:34:23;;;;;;;;;;;21.50;41.90;;;;;;6104754;29;19927;-48
2023/01/29 16:37:26;;;;;;;;;;;20.80;41.60;;;;;;6104873;29;20327;-47
2023/01/29 16:40:31;;;;;;;;;;;21.20;41.80;;;;;;6104850;29;19934;-46
2023/01/29 16:43:42;;;;;;;;;;;20.80;41.60;;;;;;6103697;29;19931;-49
2023/01/29 16:46:45;;;;;;;;;;;21.30;41.70;;;;;;6104541;29;19934;-46
2023/01/29 16:49:48;;;;;;;;;;;20.80;41.60;;;;;;6103498;29;19987;-50
2023/01/29 16:52:55;;;;;;;;;;;21.40;41.90;;;;;;6104587;29;19927;-47
2023/01/29 16:56:02;;;;;;;;;;;20.80;41.60;;;;;;6104853;29;20336;-50
2023/01/29 16:59:05;;;;;;;;;;;21.10;41.10;;;;;;6104478;29;19927;-48
2023/01/29 17:02:16;;;;;;;;;;;20.90;41.60;;;;;;6104519;29;19974;-47
2023/01/29 17:05:20;;;;;;;;;;;21.00;41.70;;;;;;6103710;29;20341;-48
2023/01/29 17:08:22;;;;;;;;;;;20.70;41.60;;;;;;6104514;29;20315;-48
2023/01/29 17:11:25;;;;;;;;;;;21.10;41.70;;;;;;6104329;29;19927;-47
2023/01/29 17:14:28;;;;;;;;;;;20.80;41.70;;;;;;6104614;29;19938;-51
2023/01/29 17:17:31;;;;;;;;;;;21.00;41.70;;;;;;6104206;29;20368;-47
2023/01/29 17:20:32;;;;;;;;;;;20.50;41.60;;;;;;6104196;29;19934;-46
2023/01/29 17:23:33;;;;;;;;;;;21.20;42.10;;;;;;6104055;29;19927;-49
2023/01/29 17:26:35;;;;;;;;;;;20.60;41.90;;;;;;6104299;29;20328;-50
2023/01/29 17:29:37;;;;;;;;;;;21.30;42.30;;;;;;6103978;29;19931;-48
2023/01/29 17:32:39;;;;;;;;;;;20.60;41.90;;;;;;6103879;29;19970;-46
2023/01/29 17:35:46;;;;;;;;;;;21.10;42.20;;;;;;6103891;29;19927;-46
2023/01/29 17:38:47;;;;;;;;;;;20.90;42.10;;;;;;6103861;29;19963;-47
2023/01/29 17:41:49;;;;;;;;;;;20.90;42.30;;;;;;6103644;29;19931;-49
2023/01/29 17:44:50;;;;;;;;;;;20.70;42.10;;;;;;6103915;29;19934;-49
2023/01/29 17:47:52;;;;;;;;;;;21.30;42.50;;;;;;6103793;29;20356;-48
2023/01/29 17:50:55;;;;;;;;;;;20.60;42.20;;;;;;6103698;29;19927;-46
2023/01/29 17:53:56;;;;;;;;;;;21.00;42.20;;;;;;6104068;29;20025;-48
2023/01/29 17:56:58;;;;;;;;;;;20.70;42.20;;;;;;6103652;29;19927;-46
2023/01/29 17:59:59;;;;;;;;;;;21.00;42.30;;;;;;6103489;29;20026;-49
2023/01/29 18:03:01;;;;;;;;;;;20.40;42.20;;;;;;6103637;29;20380;-49
2023/01/29 18:06:05;;;;;;;;;;;21.30;42.60;;;;;;6103295;29;19934;-51
2023/01/29 18:09:07;;;;;;;;;;;20.70;42.30;;;;;;6102243;29;20304;-45
2023/01/29 18:12:08;;;;;;;;;;;20.50;41.60;;;;;;6102338;29;19934;-49
2023/01/29 18:15:10;;;;;;;;;;;20.90;42.40;;;;;;6103368;29;19931;-48
2023/01/29 18:18:14;;;;;;;;;;;20.90;42.40;;;;;;6105790;29;19927;-47